createdAt,value
2022-10-11T00:01:20.183Z,98233.34
2022-10-11T00:03:46.831Z,98241.16
2022-10-11T00:06:13.474Z,98252.75
2022-10-11T00:08:40.076Z,98241.75
2022-10-11T00:11:07.784Z,98256.31
2022-10-11T00:13:34.607Z,98260.84
2022-10-11T00:16:01.466Z,98277.16
2022-10-11T00:18:28.310Z,98304.88
2022-10-11T00:21:21.735Z,98350.00
2022-10-11T00:23:49.143Z,98362.84
2022-10-11T00:26:16.442Z,98380.88
2022-10-11T00:28:43.082Z,98398.25
2022-10-11T00:31:13.641Z,98427.22
2022-10-11T00:33:40.432Z,98428.81
2022-10-11T00:36:08.522Z,98426.06
2022-10-11T00:38:35.425Z,98421.75
2022-10-11T00:41:02.490Z,98421.53
2022-10-11T00:43:30.879Z,98410.09
2022-10-11T00:45:57.445Z,98407.28
2022-10-11T00:48:27.680Z,98406.44
2022-10-11T00:50:57.530Z,98399.50
2022-10-11T00:53:24.942Z,98382.72
2022-10-11T00:56:03.654Z,98376.69
2022-10-11T00:58:31.832Z,98366.22
2022-10-11T01:00:58.475Z,98361.19
2022-10-11T01:03:28.817Z,98359.88
2022-10-11T01:05:56.925Z,98362.78
2022-10-11T01:08:23.803Z,98350.97
2022-10-11T01:10:51.314Z,98354.34
2022-10-11T01:13:41.086Z,98357.31
2022-10-11T01:16:30.994Z,98356.53
2022-10-11T01:19:35.448Z,98363.38
2022-10-11T01:22:20.447Z,98356.91
2022-10-11T01:24:59.354Z,98337.31
2022-10-11T01:27:53.402Z,98331.34
2022-10-11T01:30:27.696Z,98322.88
2022-10-11T01:32:56.992Z,98303.47
2022-10-11T01:35:26.647Z,98310.41
2022-10-11T01:38:01.100Z,98304.03
2022-10-11T01:40:33.745Z,98307.97
2022-10-11T01:43:02.043Z,98292.41
2022-10-11T01:45:29.872Z,98298.47
2022-10-11T01:48:08.273Z,98287.88
2022-10-11T01:50:34.796Z,98283.81
2022-10-11T01:53:12.791Z,98279.47
2022-10-11T01:55:51.849Z,98277.94
2022-10-11T01:58:53.859Z,98296.88
2022-10-11T02:01:42.162Z,98285.28
2022-10-11T02:04:24.890Z,98269.19
2022-10-11T02:07:00.510Z,98277.75
2022-10-11T02:09:31.557Z,98269.97
2022-10-11T02:12:05.260Z,98265.97
2022-10-11T02:14:37.322Z,98254.28
2022-10-11T02:17:10.694Z,98255.97
2022-10-11T02:19:42.695Z,98253.22
2022-10-11T02:22:15.602Z,98242.97
2022-10-11T02:24:45.653Z,98234.97
2022-10-11T02:27:13.545Z,98236.47
2022-10-11T02:29:43.828Z,98262.16
2022-10-11T02:32:11.070Z,98278.50
2022-10-11T02:34:46.820Z,98277.22
2022-10-11T02:37:24.148Z,98283.44
2022-10-11T02:40:02.253Z,98280.06
2022-10-11T02:42:36.584Z,98276.16
2022-10-11T02:45:10.697Z,98278.16
2022-10-11T02:47:38.074Z,98245.03
2022-10-11T02:50:05.284Z,98242.97
2022-10-11T02:52:31.825Z,98232.09
2022-10-11T02:54:58.386Z,98236.50
2022-10-11T02:57:25.065Z,98231.31
2022-10-11T02:59:51.738Z,98222.75
2022-10-11T03:02:18.287Z,98218.91
2022-10-11T03:04:44.858Z,98223.03
2022-10-11T03:07:11.657Z,98225.66
2022-10-11T03:09:38.210Z,98225.13
2022-10-11T03:12:04.975Z,98222.56
2022-10-11T03:14:31.572Z,98223.03
2022-10-11T03:17:12.112Z,98225.16
2022-10-11T03:19:44.784Z,98228.25
2022-10-11T03:22:11.399Z,98228.78
2022-10-11T03:24:37.937Z,98220.75
2022-10-11T03:27:04.516Z,98220.78
2022-10-11T03:29:31.099Z,98220.31
2022-10-11T03:31:57.767Z,98212.03
2022-10-11T03:34:24.336Z,98211.50
2022-10-11T03:36:51.383Z,98207.13
2022-10-11T03:39:18.082Z,98192.59
2022-10-11T03:41:44.692Z,98199.59
2022-10-11T03:44:11.226Z,98204.03
2022-10-11T03:46:37.777Z,98202.47
2022-10-11T03:49:04.524Z,98217.47
2022-10-11T03:51:31.834Z,98207.13
2022-10-11T03:53:58.471Z,98211.25
2022-10-11T03:56:25.055Z,98213.09
2022-10-11T03:58:51.617Z,98214.13
2022-10-11T04:01:18.206Z,98208.69
2022-10-11T04:03:44.826Z,98205.59
2022-10-11T04:06:11.498Z,98204.56
2022-10-11T04:08:38.039Z,98216.22
2022-10-11T04:11:04.759Z,98225.25
2022-10-11T04:13:31.503Z,98212.84
2022-10-11T04:15:58.165Z,98219.03
2022-10-11T04:18:24.859Z,98218.81
2022-10-11T04:20:51.448Z,98218.25
2022-10-11T04:23:17.972Z,98226.78
2022-10-11T04:25:45.604Z,98228.88
2022-10-11T04:28:12.265Z,98229.09
2022-10-11T04:30:38.873Z,98233.19
2022-10-11T04:33:05.560Z,98238.91
2022-10-11T04:35:32.318Z,98240.44
2022-10-11T04:37:58.942Z,98246.84
2022-10-11T04:40:25.527Z,98240.97
2022-10-11T04:42:53.732Z,98242.00
2022-10-11T04:45:21.596Z,98238.41
2022-10-11T04:47:48.783Z,98234.00
2022-10-11T04:50:15.820Z,98240.47
2022-10-11T04:52:42.653Z,98236.56
2022-10-11T04:55:10.078Z,98233.25
2022-10-11T04:57:36.792Z,98239.16
2022-10-11T05:00:05.055Z,98247.94
2022-10-11T05:02:31.725Z,98246.91
2022-10-11T05:04:58.661Z,98239.16
2022-10-11T05:07:28.098Z,98233.69
2022-10-11T05:09:54.721Z,98227.03
2022-10-11T05:12:21.488Z,98232.94
2022-10-11T05:14:48.062Z,98249.56
2022-10-11T05:17:14.687Z,98247.63
2022-10-11T05:19:41.275Z,98252.25
2022-10-11T05:22:08.094Z,98256.16
2022-10-11T05:24:34.779Z,98261.44
2022-10-11T05:27:03.515Z,98259.13
2022-10-11T05:29:30.366Z,98262.00
2022-10-11T05:31:56.909Z,98264.31
2022-10-11T05:34:23.509Z,98262.25
2022-10-11T05:36:50.137Z,98262.78
2022-10-11T05:39:16.773Z,98276.19
2022-10-11T05:41:43.464Z,98284.59
2022-10-11T05:44:10.005Z,98302.53
2022-10-11T05:46:36.599Z,98298.94
2022-10-11T05:49:03.391Z,98299.63
2022-10-11T05:51:29.950Z,98291.91
2022-10-11T05:53:56.590Z,98277.75
2022-10-11T05:56:25.776Z,98283.41
2022-10-11T05:58:52.964Z,98275.75
2022-10-11T06:01:25.019Z,98267.50
2022-10-11T06:03:52.150Z,98265.19
2022-10-11T06:06:19.639Z,98274.25
2022-10-11T06:08:46.759Z,98265.97
2022-10-11T06:11:31.688Z,98273.22
2022-10-11T06:13:58.466Z,98274.75
2022-10-11T06:16:25.876Z,98280.22
2022-10-11T06:18:57.076Z,98282.09
2022-10-11T06:21:24.285Z,98288.31
2022-10-11T06:23:55.580Z,98292.97
2022-10-11T06:26:25.090Z,98301.78
2022-10-11T06:28:52.879Z,98325.84
2022-10-11T06:31:19.535Z,98332.06
2022-10-11T06:33:46.087Z,98338.25
2022-10-11T06:36:14.603Z,98345.78
2022-10-11T06:38:45.023Z,98342.94
2022-10-11T06:41:19.365Z,98341.63
2022-10-11T06:43:46.313Z,98338.25
2022-10-11T06:46:13.047Z,98339.03
2022-10-11T06:48:40.932Z,98343.44
2022-10-11T06:51:07.591Z,98341.13
2022-10-11T06:53:34.144Z,98346.56
2022-10-11T06:56:09.854Z,98359.47
2022-10-11T06:58:37.572Z,98363.66
2022-10-11T07:01:07.396Z,98382.25
2022-10-11T07:03:34.714Z,98374.22
2022-10-11T07:06:03.202Z,98373.19
2022-10-11T07:08:30.186Z,98367.25
2022-10-11T07:11:01.871Z,98375.25
2022-10-11T07:13:28.601Z,98369.06
2022-10-11T07:15:56.016Z,98365.44
2022-10-11T07:18:23.446Z,98364.06
2022-10-11T07:20:50.020Z,98341.38
2022-10-11T07:23:16.772Z,98336.47
2022-10-11T07:25:44.976Z,98334.16
2022-10-11T07:28:12.128Z,98334.88
2022-10-11T07:30:40.162Z,98346.31
2022-10-11T07:33:06.887Z,98349.09
2022-10-11T07:35:37.415Z,98361.97
2022-10-11T07:38:05.577Z,98398.19
2022-10-11T07:40:33.705Z,98423.63
2022-10-11T07:43:00.870Z,98434.75
2022-10-11T07:45:29.100Z,98435.53
2022-10-11T07:47:58.861Z,98428.31
2022-10-11T07:50:25.530Z,98428.59
2022-10-11T07:52:52.115Z,98427.03
2022-10-11T07:55:19.746Z,98420.28
2022-10-11T07:57:46.322Z,98434.56
2022-10-11T08:00:13.462Z,98431.38
2022-10-11T08:02:40.044Z,98438.31
2022-10-11T08:05:07.031Z,98438.06
2022-10-11T08:07:33.680Z,98454.72
2022-10-11T08:10:00.272Z,98477.09
2022-10-11T08:12:26.945Z,98517.69
2022-10-11T08:14:55.019Z,98601.63
2022-10-11T08:17:21.677Z,98657.84
2022-10-11T08:19:48.577Z,98636.41
2022-10-11T08:22:15.180Z,98706.97
2022-10-11T08:24:41.958Z,98720.72
2022-10-11T08:27:08.533Z,98770.44
2022-10-11T08:29:35.094Z,98770.22
2022-10-11T08:32:01.768Z,98792.72
2022-10-11T08:34:28.292Z,98808.69
2022-10-11T08:36:55.128Z,98830.81
2022-10-11T08:39:22.313Z,98823.72
2022-10-11T08:41:54.416Z,98775.28
2022-10-11T08:45:09.538Z,98789.91
2022-10-11T08:47:36.409Z,98745.31
2022-10-11T08:50:05.848Z,98727.94
2022-10-11T08:52:46.777Z,98802.19
2022-10-11T08:55:28.479Z,98799.47
2022-10-11T08:57:56.724Z,98752.25
2022-10-11T09:00:24.702Z,98813.53
2022-10-11T09:03:08.008Z,98822.47
2022-10-11T09:05:39.564Z,98911.13
2022-10-11T09:08:14.774Z,98855.28
2022-10-11T09:10:58.487Z,98881.41
2022-10-11T09:13:35.775Z,98891.06
2022-10-11T09:17:00.731Z,98925.00
2022-10-11T09:19:36.317Z,98880.84
2022-10-11T09:22:12.071Z,98907.34
2022-10-11T09:24:47.707Z,98925.16
2022-10-11T09:27:43.633Z,98949.28
2022-10-11T09:30:17.760Z,98970.66
2022-10-11T09:32:54.771Z,98978.53
2022-10-11T09:35:22.672Z,99001.84
2022-10-11T09:37:59.281Z,98977.50
2022-10-11T09:40:55.477Z,98977.16
2022-10-11T09:43:22.066Z,99007.00
2022-10-11T09:45:49.751Z,99011.97
2022-10-11T09:48:27.360Z,98990.56
2022-10-11T09:51:02.503Z,98996.59
2022-10-11T09:54:03.313Z,98984.66
2022-10-11T09:56:31.922Z,99003.31
2022-10-11T09:59:22.004Z,99020.50
2022-10-11T10:01:49.108Z,99013.47
2022-10-11T10:04:19.981Z,99012.34
2022-10-11T10:06:46.542Z,98974.38
2022-10-11T10:09:20.620Z,99014.31
2022-10-11T10:11:47.660Z,99019.31
2022-10-11T10:14:32.471Z,99029.41
2022-10-11T10:17:05.617Z,99016.28
2022-10-11T10:19:48.817Z,99037.13
2022-10-11T10:22:24.434Z,99013.50
2022-10-11T10:24:52.017Z,99030.91
2022-10-11T10:27:36.828Z,99018.88
2022-10-11T10:30:09.154Z,99021.25
2022-10-11T10:33:01.200Z,99025.56
2022-10-11T10:35:47.097Z,99043.00
2022-10-11T10:38:52.139Z,99032.50
2022-10-11T10:41:19.440Z,99030.19
2022-10-11T10:43:56.505Z,99035.59
2022-10-11T10:47:19.527Z,99028.38
2022-10-11T10:49:57.175Z,99013.03
2022-10-11T10:52:43.610Z,99007.41
2022-10-11T10:55:22.647Z,99003.41
2022-10-11T10:58:18.963Z,99008.31
2022-10-11T11:01:04.262Z,99010.03
2022-10-11T11:03:46.300Z,99032.50
2022-10-11T11:06:46.858Z,99022.00
2022-10-11T11:09:22.680Z,98998.88
2022-10-11T11:12:21.634Z,98999.88
2022-10-11T11:15:08.434Z,99004.91
2022-10-11T11:17:56.896Z,99008.66
2022-10-11T11:20:24.889Z,99009.31
2022-10-11T11:22:59.174Z,98998.50
2022-10-11T11:25:45.132Z,99001.00
2022-10-11T11:28:47.432Z,99012.56
2022-10-11T11:31:13.944Z,99008.72
2022-10-11T11:33:57.363Z,99007.75
2022-10-11T11:36:32.358Z,99000.63
2022-10-11T11:39:02.918Z,98995.09
2022-10-11T11:41:48.106Z,99005.00
2022-10-11T11:44:33.530Z,98999.59
2022-10-11T11:47:00.371Z,99002.06
2022-10-11T11:52:23.142Z,98989.72
2022-10-11T11:55:04.290Z,98993.63
2022-10-11T11:57:30.928Z,98994.88
2022-10-11T12:00:12.787Z,98997.97
2022-10-11T12:02:55.167Z,98996.53
2022-10-11T12:05:25.903Z,98994.16
2022-10-11T12:08:02.215Z,98996.81
2022-10-11T12:10:49.870Z,98996.47
2022-10-11T12:13:21.414Z,98997.72
2022-10-11T12:16:03.245Z,98996.13
2022-10-11T12:18:31.315Z,99002.50
2022-10-11T12:21:06.437Z,99002.41
2022-10-11T12:24:21.002Z,98998.72
2022-10-11T12:26:49.363Z,98987.97
2022-10-11T12:29:19.103Z,98997.19
2022-10-11T12:31:50.001Z,98999.44
2022-10-11T12:37:19.738Z,98981.75
2022-10-11T12:39:50.264Z,98982.25
2022-10-11T12:42:23.663Z,98983.22
2022-10-11T12:45:12.267Z,98978.44
2022-10-11T12:47:48.131Z,98974.53
2022-10-11T12:50:21.657Z,98978.69
2022-10-11T12:52:57.001Z,98978.75
2022-10-11T12:55:35.142Z,98975.31
2022-10-11T12:58:24.713Z,98970.75
2022-10-11T13:00:51.685Z,98963.06
2022-10-11T13:03:31.212Z,98959.03
2022-10-11T13:06:01.874Z,98959.38
2022-10-11T13:08:36.342Z,98958.31
2022-10-11T13:11:08.604Z,98957.06
2022-10-11T13:13:48.327Z,98953.03
2022-10-11T13:16:18.497Z,98957.50
2022-10-11T13:18:48.081Z,98958.31
2022-10-11T13:21:36.315Z,98943.22
2022-10-11T13:24:23.958Z,98951.94
2022-10-11T13:26:54.412Z,98947.66
2022-10-11T13:29:35.372Z,98941.81
2022-10-11T13:32:07.660Z,98939.78
2022-10-11T13:34:39.022Z,98951.50
2022-10-11T13:37:06.834Z,98932.81
2022-10-11T13:39:39.266Z,98923.59
2022-10-11T13:42:10.110Z,98925.25
2022-10-11T13:44:38.745Z,98926.78
2022-10-11T13:47:05.865Z,98932.63
2022-10-11T13:49:39.766Z,98939.16
2022-10-11T13:52:19.367Z,98940.16
2022-10-11T13:55:11.482Z,98937.66
2022-10-11T13:57:44.902Z,98936.34
2022-10-11T14:00:30.881Z,98940.84
2022-10-11T14:03:00.738Z,98929.44
2022-10-11T14:05:44.348Z,98928.31
2022-10-11T14:08:32.085Z,98939.94
2022-10-11T14:11:05.151Z,98926.91
2022-10-11T14:13:38.990Z,98926.00
2022-10-11T14:16:12.814Z,98931.44
2022-10-11T14:19:08.665Z,98930.00
2022-10-11T14:21:47.456Z,98925.84
2022-10-11T14:24:14.601Z,98925.03
2022-10-11T14:26:46.923Z,98923.34
2022-10-11T14:29:31.224Z,98930.19
2022-10-11T14:32:12.179Z,98926.25
2022-10-11T14:34:38.788Z,98928.97
2022-10-11T14:37:05.557Z,98925.91
2022-10-11T14:39:33.221Z,98927.34
2022-10-11T14:41:59.884Z,98923.84
2022-10-11T14:44:26.723Z,98925.28
2022-10-11T14:46:54.714Z,98920.47
2022-10-11T14:49:25.566Z,98915.81
2022-10-11T14:51:53.486Z,98922.72
2022-10-11T14:54:23.180Z,98917.63
2022-10-11T14:56:51.150Z,98917.94
2022-10-11T14:59:21.188Z,98917.97
2022-10-11T15:01:53.522Z,98912.53
2022-10-11T15:04:26.431Z,98917.34
2022-10-11T15:06:54.791Z,98904.03
2022-10-11T15:09:21.996Z,98910.09
2022-10-11T15:11:50.405Z,98905.75
2022-10-11T15:14:17.431Z,98907.44
2022-10-11T15:16:44.142Z,98914.69
2022-10-11T15:19:21.753Z,98909.78
2022-10-11T15:21:48.527Z,98909.75
2022-10-11T15:24:15.422Z,98905.69
2022-10-11T15:26:42.411Z,98910.25
2022-10-11T15:29:12.396Z,98893.28
2022-10-11T15:31:39.578Z,98903.28
2022-10-11T15:34:06.458Z,98899.66
2022-10-11T15:36:33.101Z,98896.19
2022-10-11T15:39:00.137Z,98901.97
2022-10-11T15:41:26.800Z,98898.63
2022-10-11T15:43:53.388Z,98896.00
2022-10-11T15:46:22.574Z,98894.13
2022-10-11T15:48:50.808Z,98892.09
2022-10-11T15:51:17.868Z,98893.56
2022-10-11T15:53:44.756Z,98893.06
2022-10-11T15:56:16.295Z,98891.56
2022-10-11T15:58:43.390Z,98894.97
2022-10-11T16:01:16.744Z,98886.75
2022-10-11T16:03:44.742Z,98888.44
2022-10-11T16:06:12.249Z,98892.59
2022-10-11T16:08:39.436Z,98869.22
2022-10-11T16:11:07.823Z,98884.16
2022-10-11T16:13:35.702Z,98883.47
2022-10-11T16:16:07.598Z,98873.03
2022-10-11T16:18:35.842Z,98855.44
2022-10-11T16:21:09.060Z,98851.31
2022-10-11T16:23:36.439Z,98846.88
2022-10-11T16:26:06.644Z,98834.81
2022-10-11T16:28:33.882Z,98825.06
2022-10-11T16:31:06.285Z,98816.84
2022-10-11T16:33:32.950Z,98810.34
2022-10-11T16:36:19.451Z,98806.91
2022-10-11T16:38:46.108Z,98806.34
2022-10-11T16:41:12.652Z,98798.25
2022-10-11T16:43:39.297Z,98792.94
2022-10-11T16:46:06.143Z,98795.25
2022-10-11T16:48:33.070Z,98789.31
2022-10-11T16:51:07.307Z,98787.38
2022-10-11T16:53:35.098Z,98784.03
2022-10-11T16:56:08.764Z,98781.59
2022-10-11T16:58:36.111Z,98774.56
2022-10-11T17:01:07.891Z,98782.31
2022-10-11T17:03:34.680Z,98786.16
2022-10-11T17:06:01.450Z,98779.06
2022-10-11T17:08:28.757Z,98774.97
2022-10-11T17:10:57.696Z,98769.50
2022-10-11T17:13:25.337Z,98772.16
2022-10-11T17:15:52.190Z,98769.16
2022-10-11T17:18:18.993Z,98755.28
2022-10-11T17:20:45.574Z,98748.03
2022-10-11T17:23:12.254Z,98750.97
2022-10-11T17:25:43.318Z,98744.47
2022-10-11T17:28:10.485Z,98747.84
2022-10-11T17:30:38.181Z,98748.63
2022-10-11T17:33:04.838Z,98749.47
2022-10-11T17:35:32.759Z,98750.25
2022-10-11T17:38:05.720Z,98744.31
2022-10-11T17:40:32.870Z,98750.34
2022-10-11T17:42:59.484Z,98746.22
2022-10-11T17:45:26.054Z,98735.59
2022-10-11T17:47:52.687Z,98737.94
2022-10-11T17:50:19.257Z,98740.59
2022-10-11T17:52:45.981Z,98739.81
2022-10-11T17:55:12.709Z,98747.66
2022-10-11T17:57:39.874Z,98741.47
2022-10-11T18:00:07.309Z,98723.72
2022-10-11T18:02:34.009Z,98707.81
2022-10-11T18:05:00.672Z,98708.63
2022-10-11T18:07:27.331Z,98678.88
2022-10-11T18:09:53.881Z,98684.53
2022-10-11T18:12:20.454Z,98704.00
2022-10-11T18:14:47.036Z,98707.41
2022-10-11T18:17:13.589Z,98694.97
2022-10-11T18:19:40.131Z,98690.25
2022-10-11T18:22:07.374Z,98687.13
2022-10-11T18:24:34.274Z,98690.31
2022-10-11T18:27:00.941Z,98687.47
2022-10-11T18:29:27.525Z,98670.88
2022-10-11T18:31:54.081Z,98667.50
2022-10-11T18:34:20.681Z,98670.38
2022-10-11T18:36:47.518Z,98636.94
2022-10-11T18:39:15.074Z,98628.13
2022-10-11T18:41:44.527Z,98636.69
2022-10-11T18:44:14.172Z,98629.41
2022-10-11T18:46:41.697Z,98639.00
2022-10-11T18:49:08.872Z,98625.81
2022-10-11T18:51:38.007Z,98612.31
2022-10-11T18:54:06.061Z,98621.09
2022-10-11T18:56:34.592Z,98646.00
2022-10-11T18:59:01.247Z,98637.19
2022-10-11T19:01:39.787Z,98638.78
2022-10-11T19:04:08.936Z,98637.19
2022-10-11T19:06:38.350Z,98636.94
2022-10-11T19:09:07.949Z,98638.47
2022-10-11T19:11:34.826Z,98624.75
2022-10-11T19:14:07.019Z,98619.28
2022-10-11T19:16:35.680Z,98625.25
2022-10-11T19:19:02.373Z,98622.91
2022-10-11T19:21:30.049Z,98619.06
2022-10-11T19:23:57.066Z,98616.72
2022-10-11T19:26:27.501Z,98611.25
2022-10-11T19:28:59.878Z,98602.16
2022-10-11T19:31:27.780Z,98589.47
2022-10-11T19:33:57.806Z,98589.78
2022-10-11T19:36:26.373Z,98575.00
2022-10-11T19:38:57.045Z,98555.81
2022-10-11T19:41:26.036Z,98536.38
2022-10-11T19:43:54.387Z,98545.94
2022-10-11T19:49:09.765Z,98526.78
2022-10-11T19:51:37.428Z,98527.56
2022-10-11T19:54:07.440Z,98521.59
2022-10-11T19:56:34.756Z,98524.19
2022-10-11T19:59:01.948Z,98520.84
2022-10-11T20:01:30.845Z,98517.47
2022-10-11T20:03:59.663Z,98503.47
2022-10-11T20:06:27.932Z,98509.16
2022-10-11T20:09:16.634Z,98485.03
2022-10-11T20:11:42.183Z,98465.03
2022-10-11T20:14:08.912Z,98479.50
2022-10-11T20:16:35.886Z,98448.97
2022-10-11T20:19:02.796Z,98455.19
2022-10-11T20:21:30.326Z,98481.81
2022-10-11T20:24:01.606Z,98492.94
2022-10-11T20:26:30.241Z,98496.38
2022-10-11T20:28:57.841Z,98486.81
2022-10-11T20:31:29.040Z,98462.75
2022-10-11T20:33:57.761Z,98466.13
2022-10-11T20:36:26.094Z,98453.22
2022-10-11T20:38:52.901Z,98448.78
2022-10-11T20:41:21.898Z,98436.38
2022-10-11T20:43:50.695Z,98429.13
2022-10-11T20:46:19.717Z,98410.19
2022-10-11T20:48:58.892Z,98405.81
2022-10-11T20:51:28.584Z,98416.69
2022-10-11T20:53:55.493Z,98398.84
2022-10-11T20:56:23.173Z,98385.91
2022-10-11T20:58:55.076Z,98385.59
2022-10-11T21:01:26.985Z,98373.63
2022-10-11T21:03:53.732Z,98359.84
2022-10-11T21:06:20.598Z,98367.88
2022-10-11T21:08:47.156Z,98386.09
2022-10-11T21:11:13.752Z,98395.94
2022-10-11T21:13:40.505Z,98398.00
2022-10-11T21:16:14.718Z,98400.84
2022-10-11T21:18:41.879Z,98390.38
2022-10-11T21:21:11.735Z,98363.19
2022-10-11T21:23:38.739Z,98361.16
2022-10-11T21:26:08.776Z,98369.75
2022-10-11T21:28:35.454Z,98375.97
2022-10-11T21:31:09.593Z,98369.81
2022-10-11T21:33:36.641Z,98362.00
2022-10-11T21:36:05.126Z,98359.63
2022-10-11T21:38:32.368Z,98357.56
2022-10-11T21:40:58.930Z,98349.53
2022-10-11T21:43:25.462Z,98371.19
2022-10-11T21:45:52.009Z,98367.75
2022-10-11T21:48:18.642Z,98359.72
2022-10-11T21:50:52.383Z,98338.72
2022-10-11T21:53:18.948Z,98326.22
2022-10-11T21:55:45.492Z,98341.78
2022-10-11T21:58:12.070Z,98351.56
2022-10-11T22:00:39.090Z,98353.22
2022-10-11T22:03:05.625Z,98365.44
2022-10-11T22:05:32.262Z,98371.72
2022-10-11T22:07:58.792Z,98368.59
2022-10-11T22:10:25.383Z,98344.31
2022-10-11T22:12:51.982Z,98337.63
2022-10-11T22:15:18.553Z,98329.56
2022-10-11T22:17:45.073Z,98327.47
2022-10-11T22:20:11.658Z,98324.09
2022-10-11T22:22:38.452Z,98326.34
2022-10-11T22:25:05.608Z,98328.00
2022-10-11T22:27:32.162Z,98344.00
2022-10-11T22:29:58.758Z,98363.09
2022-10-11T22:32:25.335Z,98358.47
2022-10-11T22:34:52.002Z,98353.94
2022-10-11T22:37:18.552Z,98346.00
2022-10-11T22:39:45.098Z,98335.88
2022-10-11T22:42:11.676Z,98317.28
2022-10-11T22:44:38.203Z,98311.91
2022-10-11T22:47:04.851Z,98320.09
2022-10-11T22:49:31.385Z,98315.19
2022-10-11T22:51:57.924Z,98316.91
2022-10-11T22:54:24.505Z,98308.94
2022-10-11T22:56:51.053Z,98307.88
2022-10-11T22:59:17.607Z,98310.59
2022-10-11T23:01:44.129Z,98311.63
2022-10-11T23:04:10.729Z,98300.66
2022-10-11T23:06:37.235Z,98299.16
2022-10-11T23:09:04.068Z,98303.56
2022-10-11T23:11:30.727Z,98308.47
2022-10-11T23:13:57.297Z,98293.25
2022-10-11T23:16:23.845Z,98295.47
2022-10-11T23:18:53.256Z,98295.63
2022-10-11T23:21:20.378Z,98291.50
2022-10-11T23:23:47.339Z,98298.22
2022-10-11T23:26:16.224Z,98290.81
2022-10-11T23:28:43.790Z,98300.06
2022-10-11T23:31:18.240Z,98307.81
2022-10-11T23:33:46.036Z,98302.38
2022-10-11T23:36:16.550Z,98309.41
2022-10-11T23:38:43.791Z,98314.81
2022-10-11T23:41:10.799Z,98325.13
2022-10-11T23:43:37.589Z,98320.19
2022-10-11T23:46:04.304Z,98317.50
2022-10-11T23:48:30.820Z,98319.94
2022-10-11T23:50:57.389Z,98321.78
2022-10-11T23:53:23.946Z,98318.69
2022-10-11T23:55:50.770Z,98328.50
2022-10-11T23:58:17.329Z,98317.88
